createdAt,value
2023-05-05T03:30:20.289Z,0.8
2023-05-05T03:45:20.501Z,3
2023-05-05T04:02:34.798Z,8.3
2023-05-05T04:15:19.482Z,14.5
2023-05-05T04:30:19.982Z,25.1
2023-05-05T04:45:20.235Z,39.7
2023-05-05T05:00:20.355Z,54
2023-05-05T05:15:24.415Z,77.4
2023-05-05T05:30:19.729Z,90.5
2023-05-05T05:45:19.354Z,65
2023-05-05T06:00:19.688Z,71
2023-05-05T06:15:19.512Z,104.4
2023-05-05T06:30:21.022Z,109
2023-05-05T06:45:20.520Z,121.4
2023-05-05T07:00:19.516Z,133.2
2023-05-05T07:15:27.580Z,158.9
2023-05-05T07:30:20.067Z,177.4
2023-05-05T07:45:19.865Z,179.8
2023-05-05T08:00:19.563Z,150.2
2023-05-05T08:15:19.551Z,179.8
2023-05-05T08:30:19.796Z,196.1
2023-05-05T08:45:20.107Z,212.7
2023-05-05T09:00:20.849Z,252.6
2023-05-05T09:15:19.598Z,250.2
2023-05-05T09:30:20.216Z,259.1
2023-05-05T09:45:19.901Z,233.1
2023-05-05T10:00:19.735Z,182.6
2023-05-05T10:15:19.541Z,137.8
2023-05-05T10:30:19.838Z,122.1
2023-05-05T10:45:20.232Z,133.3
2023-05-05T11:00:20.481Z,172.8
2023-05-05T11:15:20.185Z,204.4
2023-05-05T11:30:20.369Z,285.1
2023-05-05T11:45:20.065Z,200.6
2023-05-05T12:00:20.138Z,194.1
2023-05-05T12:15:20.536Z,202.7
2023-05-05T12:30:20.470Z,124.9
2023-05-05T12:45:19.785Z,123.2
2023-05-05T13:00:20.372Z,126.4
2023-05-05T13:15:19.991Z,220.4
2023-05-05T13:30:19.423Z,212.3
2023-05-05T13:45:19.432Z,218.6
2023-05-05T14:00:19.884Z,372.8
2023-05-05T14:15:19.813Z,332.4
2023-05-05T14:30:22.238Z,433.8
2023-05-05T14:45:20.262Z,460.1
2023-05-05T15:00:20.008Z,557.8
2023-05-05T15:15:20.598Z,224.7
2023-05-05T15:30:20.530Z,172
2023-05-05T15:45:20.680Z,219.1
2023-05-05T16:00:19.674Z,106.8
2023-05-05T16:15:19.598Z,41.5
2023-05-05T16:30:19.585Z,26.6
2023-05-05T16:45:20.346Z,17.1
2023-05-05T17:00:21.125Z,11.9
2023-05-05T17:15:27.920Z,9.6
2023-05-05T17:30:20.392Z,6.7
2023-05-05T17:45:20.210Z,5.5
2023-05-05T18:00:19.496Z,3.5
2023-05-05T18:15:19.946Z,1.7
2023-05-05T18:30:20.163Z,1.6
2023-05-05T18:45:20.121Z,0.8
2023-05-05T19:00:19.828Z,0.8
2023-05-05T19:15:19.641Z,0.8
2023-05-05T19:30:20.044Z,0.8
2023-05-05T21:30:19.729Z,5.5
2023-05-05T21:45:34.662Z,5.5
2023-05-05T22:00:20.531Z,5.5
2023-05-05T22:15:20.420Z,5.5
